sensor_id;sensor_type;location;lat;lon;timestamp;P1;durP1;ratioP1;P2;durP2;ratioP2
64915;SDS011;51427;-27.442;153.014;2022-09-20T00:01:25;6.15;;;4.45;;
64915;SDS011;51427;-27.442;153.014;2022-09-20T00:03:58;6.20;;;4.10;;
64915;SDS011;51427;-27.442;153.014;2022-09-20T00:06:27;7.28;;;4.45;;
64915;SDS011;51427;-27.442;153.014;2022-09-20T00:08:56;10.52;;;4.45;;
64915;SDS011;51427;-27.442;153.014;2022-09-20T00:11:25;7.60;;;3.92;;
64915;SDS011;51427;-27.442;153.014;2022-09-20T00:13:54;9.07;;;4.20;;
64915;SDS011;51427;-27.442;153.014;2022-09-20T00:16:24;7.75;;;4.25;;
64915;SDS011;51427;-27.442;153.014;2022-09-20T00:18:54;6.75;;;3.72;;
64915;SDS011;51427;-27.442;153.014;2022-09-20T00:21:24;6.00;;;3.70;;
64915;SDS011;51427;-27.442;153.014;2022-09-20T00:23:54;6.20;;;3.70;;
64915;SDS011;51427;-27.442;153.014;2022-09-20T00:26:25;6.15;;;3.70;;
64915;SDS011;51427;-27.442;153.014;2022-09-20T00:28:53;10.80;;;3.72;;
64915;SDS011;51427;-27.442;153.014;2022-09-20T00:31:22;5.40;;;3.00;;
64915;SDS011;51427;-27.442;153.014;2022-09-20T00:33:52;7.82;;;3.30;;
64915;SDS011;51427;-27.442;153.014;2022-09-20T00:36:38;4.70;;;2.70;;
64915;SDS011;51427;-27.442;153.014;2022-09-20T00:39:05;5.72;;;2.33;;
64915;SDS011;51427;-27.442;153.014;2022-09-20T00:41:34;3.67;;;2.10;;
64915;SDS011;51427;-27.442;153.014;2022-09-20T00:44:35;4.22;;;2.20;;
64915;SDS011;51427;-27.442;153.014;2022-09-20T00:47:15;4.43;;;2.00;;
64915;SDS011;51427;-27.442;153.014;2022-09-20T00:49:45;4.05;;;2.20;;
64915;SDS011;51427;-27.442;153.014;2022-09-20T00:52:14;1.95;;;1.67;;
64915;SDS011;51427;-27.442;153.014;2022-09-20T00:54:42;4.80;;;1.85;;
64915;SDS011;51427;-27.442;153.014;2022-09-20T00:57:10;6.72;;;2.10;;
64915;SDS011;51427;-27.442;153.014;2022-09-20T00:59:38;3.33;;;1.80;;
64915;SDS011;51427;-27.442;153.014;2022-09-20T01:02:15;6.03;;;2.25;;
64915;SDS011;51427;-27.442;153.014;2022-09-20T01:04:52;6.63;;;2.05;;
64915;SDS011;51427;-27.442;153.014;2022-09-20T01:07:22;5.95;;;2.38;;
64915;SDS011;51427;-27.442;153.014;2022-09-20T01:09:51;3.88;;;1.95;;
64915;SDS011;51427;-27.442;153.014;2022-09-20T01:12:19;4.25;;;1.98;;
64915;SDS011;51427;-27.442;153.014;2022-09-20T01:14:49;6.65;;;2.55;;
64915;SDS011;51427;-27.442;153.014;2022-09-20T01:17:18;3.90;;;2.03;;
64915;SDS011;51427;-27.442;153.014;2022-09-20T01:20:04;3.80;;;2.00;;
64915;SDS011;51427;-27.442;153.014;2022-09-20T01:28:34;3.08;;;1.90;;
64915;SDS011;51427;-27.442;153.014;2022-09-20T01:33:58;5.85;;;2.10;;
64915;SDS011;51427;-27.442;153.014;2022-09-20T01:36:49;2.45;;;1.80;;
64915;SDS011;51427;-27.442;153.014;2022-09-20T01:42:32;3.30;;;2.13;;
64915;SDS011;51427;-27.442;153.014;2022-09-20T01:56:25;5.80;;;2.20;;
64915;SDS011;51427;-27.442;153.014;2022-09-20T02:02:05;3.92;;;2.15;;
64915;SDS011;51427;-27.442;153.014;2022-09-20T02:05:11;3.92;;;1.85;;
64915;SDS011;51427;-27.442;153.014;2022-09-20T02:21:58;3.05;;;1.80;;
64915;SDS011;51427;-27.442;153.014;2022-09-20T02:46:36;5.38;;;2.33;;
64915;SDS011;51427;-27.442;153.014;2022-09-20T02:55:06;6.32;;;2.35;;
64915;SDS011;51427;-27.442;153.014;2022-09-20T03:00:18;7.97;;;3.53;;
64915;SDS011;51427;-27.442;153.014;2022-09-20T03:08:26;6.35;;;2.72;;
64915;SDS011;51427;-27.442;153.014;2022-09-20T03:11:45;7.47;;;2.75;;
64915;SDS011;51427;-27.442;153.014;2022-09-20T03:14:16;4.85;;;2.22;;
64915;SDS011;51427;-27.442;153.014;2022-09-20T03:16:59;5.70;;;2.30;;
64915;SDS011;51427;-27.442;153.014;2022-09-20T03:41:35;4.75;;;2.30;;
64915;SDS011;51427;-27.442;153.014;2022-09-20T03:46:56;4.43;;;2.00;;
64915;SDS011;51427;-27.442;153.014;2022-09-20T04:21:04;6.85;;;2.33;;
64915;SDS011;51427;-27.442;153.014;2022-09-20T04:26:25;4.35;;;1.70;;
64915;SDS011;51427;-27.442;153.014;2022-09-20T04:31:51;6.20;;;1.85;;
64915;SDS011;51427;-27.442;153.014;2022-09-20T04:34:37;4.35;;;1.92;;
64915;SDS011;51427;-27.442;153.014;2022-09-20T04:37:27;3.40;;;1.73;;
64915;SDS011;51427;-27.442;153.014;2022-09-20T04:40:46;6.00;;;2.10;;
64915;SDS011;51427;-27.442;153.014;2022-09-20T04:57:07;7.20;;;2.38;;
64915;SDS011;51427;-27.442;153.014;2022-09-20T05:14:11;6.32;;;2.45;;
64915;SDS011;51427;-27.442;153.014;2022-09-20T05:30:51;3.78;;;2.00;;
64915;SDS011;51427;-27.442;153.014;2022-09-20T05:39:01;6.03;;;2.05;;
64915;SDS011;51427;-27.442;153.014;2022-09-20T05:41:39;9.07;;;2.10;;
64915;SDS011;51427;-27.442;153.014;2022-09-20T05:49:40;6.20;;;2.35;;
64915;SDS011;51427;-27.442;153.014;2022-09-20T05:57:47;7.00;;;2.25;;
64915;SDS011;51427;-27.442;153.014;2022-09-20T06:00:21;4.45;;;1.85;;
64915;SDS011;51427;-27.442;153.014;2022-09-20T06:13:50;9.88;;;2.05;;
64915;SDS011;51427;-27.442;153.014;2022-09-20T06:20:01;3.20;;;1.65;;
64915;SDS011;51427;-27.442;153.014;2022-09-20T06:22:16;6.93;;;2.10;;
64915;SDS011;51427;-27.442;153.014;2022-09-20T06:27:31;5.53;;;1.90;;
64915;SDS011;51427;-27.442;153.014;2022-09-20T06:30:07;4.28;;;2.20;;
64915;SDS011;51427;-27.442;153.014;2022-09-20T06:32:53;2.85;;;1.70;;
64915;SDS011;51427;-27.442;153.014;2022-09-20T06:35:27;5.45;;;1.98;;
64915;SDS011;51427;-27.442;153.014;2022-09-20T06:41:08;5.38;;;1.67;;
64915;SDS011;51427;-27.442;153.014;2022-09-20T06:43:53;5.32;;;1.92;;
64915;SDS011;51427;-27.442;153.014;2022-09-20T06:46:25;6.60;;;2.60;;
64915;SDS011;51427;-27.442;153.014;2022-09-20T06:49:00;7.20;;;2.65;;
64915;SDS011;51427;-27.442;153.014;2022-09-20T06:51:32;4.88;;;1.80;;
64915;SDS011;51427;-27.442;153.014;2022-09-20T06:54:01;4.35;;;1.95;;
64915;SDS011;51427;-27.442;153.014;2022-09-20T06:56:31;9.57;;;2.40;;
64915;SDS011;51427;-27.442;153.014;2022-09-20T06:59:04;6.95;;;2.20;;
64915;SDS011;51427;-27.442;153.014;2022-09-20T07:01:39;5.82;;;1.75;;
64915;SDS011;51427;-27.442;153.014;2022-09-20T07:04:07;7.22;;;2.38;;
64915;SDS011;51427;-27.442;153.014;2022-09-20T07:06:34;9.60;;;2.45;;
64915;SDS011;51427;-27.442;153.014;2022-09-20T07:09:02;7.32;;;2.20;;
64915;SDS011;51427;-27.442;153.014;2022-09-20T07:11:30;5.97;;;2.17;;
64915;SDS011;51427;-27.442;153.014;2022-09-20T07:13:59;5.55;;;2.22;;
64915;SDS011;51427;-27.442;153.014;2022-09-20T07:16:27;5.68;;;2.13;;
64915;SDS011;51427;-27.442;153.014;2022-09-20T07:18:54;5.78;;;1.98;;
64915;SDS011;51427;-27.442;153.014;2022-09-20T07:21:22;6.05;;;2.17;;
64915;SDS011;51427;-27.442;153.014;2022-09-20T07:23:49;6.03;;;2.17;;
64915;SDS011;51427;-27.442;153.014;2022-09-20T07:26:25;5.05;;;2.05;;
64915;SDS011;51427;-27.442;153.014;2022-09-20T07:28:55;5.40;;;2.28;;
64915;SDS011;51427;-27.442;153.014;2022-09-20T07:31:23;7.80;;;2.20;;
64915;SDS011;51427;-27.442;153.014;2022-09-20T07:33:52;7.35;;;2.13;;
64915;SDS011;51427;-27.442;153.014;2022-09-20T07:36:20;6.40;;;2.22;;
64915;SDS011;51427;-27.442;153.014;2022-09-20T07:38:48;7.60;;;2.65;;
64915;SDS011;51427;-27.442;153.014;2022-09-20T07:41:17;7.10;;;2.42;;
64915;SDS011;51427;-27.442;153.014;2022-09-20T07:43:47;6.28;;;2.17;;
64915;SDS011;51427;-27.442;153.014;2022-09-20T07:46:15;11.73;;;2.53;;
64915;SDS011;51427;-27.442;153.014;2022-09-20T07:48:44;5.30;;;2.30;;
64915;SDS011;51427;-27.442;153.014;2022-09-20T07:51:12;7.93;;;1.90;;
64915;SDS011;51427;-27.442;153.014;2022-09-20T07:53:39;6.85;;;1.90;;
64915;SDS011;51427;-27.442;153.014;2022-09-20T07:58:38;5.78;;;2.42;;
64915;SDS011;51427;-27.442;153.014;2022-09-20T08:01:06;7.40;;;2.53;;
64915;SDS011;51427;-27.442;153.014;2022-09-20T08:03:35;2.95;;;1.98;;
64915;SDS011;51427;-27.442;153.014;2022-09-20T08:06:03;6.00;;;2.40;;
64915;SDS011;51427;-27.442;153.014;2022-09-20T08:08:32;4.40;;;2.20;;
64915;SDS011;51427;-27.442;153.014;2022-09-20T08:11:04;7.03;;;2.25;;
64915;SDS011;51427;-27.442;153.014;2022-09-20T08:13:40;7.30;;;2.42;;
64915;SDS011;51427;-27.442;153.014;2022-09-20T08:16:09;8.43;;;2.38;;
64915;SDS011;51427;-27.442;153.014;2022-09-20T08:18:38;5.38;;;2.28;;
64915;SDS011;51427;-27.442;153.014;2022-09-20T08:21:17;8.00;;;2.33;;
64915;SDS011;51427;-27.442;153.014;2022-09-20T08:23:44;10.48;;;2.78;;
64915;SDS011;51427;-27.442;153.014;2022-09-20T08:26:16;4.78;;;2.45;;
64915;SDS011;51427;-27.442;153.014;2022-09-20T08:28:45;8.48;;;2.65;;
64915;SDS011;51427;-27.442;153.014;2022-09-20T08:31:17;5.50;;;2.50;;
64915;SDS011;51427;-27.442;153.014;2022-09-20T08:33:46;8.95;;;2.67;;
64915;SDS011;51427;-27.442;153.014;2022-09-20T08:36:18;7.68;;;2.67;;
64915;SDS011;51427;-27.442;153.014;2022-09-20T08:38:47;6.57;;;2.45;;
64915;SDS011;51427;-27.442;153.014;2022-09-20T08:44:10;10.23;;;3.28;;
64915;SDS011;51427;-27.442;153.014;2022-09-20T08:46:45;7.72;;;2.63;;
64915;SDS011;51427;-27.442;153.014;2022-09-20T08:49:16;9.10;;;2.80;;
64915;SDS011;51427;-27.442;153.014;2022-09-20T08:54:17;10.60;;;2.90;;
64915;SDS011;51427;-27.442;153.014;2022-09-20T08:56:44;6.93;;;2.50;;
64915;SDS011;51427;-27.442;153.014;2022-09-20T08:59:15;7.95;;;2.53;;
64915;SDS011;51427;-27.442;153.014;2022-09-20T09:01:45;5.65;;;2.28;;
64915;SDS011;51427;-27.442;153.014;2022-09-20T09:04:18;8.63;;;2.38;;
64915;SDS011;51427;-27.442;153.014;2022-09-20T09:06:48;8.38;;;2.42;;
64915;SDS011;51427;-27.442;153.014;2022-09-20T09:09:18;7.35;;;2.70;;
64915;SDS011;51427;-27.442;153.014;2022-09-20T09:11:49;5.22;;;1.73;;
64915;SDS011;51427;-27.442;153.014;2022-09-20T09:17:14;9.60;;;2.97;;
64915;SDS011;51427;-27.442;153.014;2022-09-20T09:22:10;10.75;;;3.05;;
64915;SDS011;51427;-27.442;153.014;2022-09-20T09:24:43;8.75;;;2.63;;
64915;SDS011;51427;-27.442;153.014;2022-09-20T09:27:17;11.27;;;2.92;;
64915;SDS011;51427;-27.442;153.014;2022-09-20T09:29:49;7.20;;;2.20;;
64915;SDS011;51427;-27.442;153.014;2022-09-20T09:32:20;10.48;;;2.75;;
64915;SDS011;51427;-27.442;153.014;2022-09-20T09:35:19;8.07;;;2.20;;
64915;SDS011;51427;-27.442;153.014;2022-09-20T09:37:53;10.13;;;2.22;;
64915;SDS011;51427;-27.442;153.014;2022-09-20T09:40:23;10.48;;;2.28;;
64915;SDS011;51427;-27.442;153.014;2022-09-20T09:45:32;8.30;;;2.50;;
64915;SDS011;51427;-27.442;153.014;2022-09-20T09:48:22;10.48;;;2.50;;
64915;SDS011;51427;-27.442;153.014;2022-09-20T09:50:49;14.13;;;3.17;;
64915;SDS011;51427;-27.442;153.014;2022-09-20T09:53:32;8.25;;;2.20;;
64915;SDS011;51427;-27.442;153.014;2022-09-20T10:01:31;7.05;;;2.38;;
64915;SDS011;51427;-27.442;153.014;2022-09-20T10:09:52;8.43;;;2.15;;
64915;SDS011;51427;-27.442;153.014;2022-09-20T10:13:20;8.82;;;2.28;;
64915;SDS011;51427;-27.442;153.014;2022-09-20T10:23:45;7.20;;;2.50;;
64915;SDS011;51427;-27.442;153.014;2022-09-20T10:34:51;8.52;;;2.17;;
64915;SDS011;51427;-27.442;153.014;2022-09-20T10:43:23;6.63;;;2.40;;
64915;SDS011;51427;-27.442;153.014;2022-09-20T11:08:34;6.10;;;1.85;;
64915;SDS011;51427;-27.442;153.014;2022-09-20T11:13:36;7.82;;;2.03;;
64915;SDS011;51427;-27.442;153.014;2022-09-20T11:16:17;8.43;;;2.28;;
64915;SDS011;51427;-27.442;153.014;2022-09-20T11:21:39;7.75;;;1.90;;
64915;SDS011;51427;-27.442;153.014;2022-09-20T11:30:13;4.18;;;1.73;;
64915;SDS011;51427;-27.442;153.014;2022-09-20T11:32:43;8.10;;;2.10;;
64915;SDS011;51427;-27.442;153.014;2022-09-20T11:37:56;9.27;;;2.10;;
64915;SDS011;51427;-27.442;153.014;2022-09-20T11:43:25;5.80;;;2.15;;
64915;SDS011;51427;-27.442;153.014;2022-09-20T11:45:57;6.25;;;1.95;;
64915;SDS011;51427;-27.442;153.014;2022-09-20T11:48:44;5.03;;;2.00;;
64915;SDS011;51427;-27.442;153.014;2022-09-20T11:56:32;7.20;;;2.20;;
64915;SDS011;51427;-27.442;153.014;2022-09-20T11:59:00;5.82;;;2.15;;
64915;SDS011;51427;-27.442;153.014;2022-09-20T12:04:10;7.47;;;1.70;;
64915;SDS011;51427;-27.442;153.014;2022-09-20T12:06:39;5.43;;;2.20;;
64915;SDS011;51427;-27.442;153.014;2022-09-20T12:11:58;8.88;;;1.77;;
64915;SDS011;51427;-27.442;153.014;2022-09-20T12:14:39;8.35;;;2.38;;
64915;SDS011;51427;-27.442;153.014;2022-09-20T12:26:01;5.00;;;1.63;;
64915;SDS011;51427;-27.442;153.014;2022-09-20T12:28:38;8.45;;;1.83;;
64915;SDS011;51427;-27.442;153.014;2022-09-20T12:34:00;9.20;;;1.73;;
64915;SDS011;51427;-27.442;153.014;2022-09-20T12:36:34;9.90;;;3.08;;
64915;SDS011;51427;-27.442;153.014;2022-09-20T12:41:44;5.80;;;1.77;;
64915;SDS011;51427;-27.442;153.014;2022-09-20T12:47:05;8.30;;;2.28;;
64915;SDS011;51427;-27.442;153.014;2022-09-20T12:49:38;4.95;;;1.83;;
64915;SDS011;51427;-27.442;153.014;2022-09-20T12:55:30;6.93;;;2.58;;
64915;SDS011;51427;-27.442;153.014;2022-09-20T13:00:39;8.07;;;2.17;;
64915;SDS011;51427;-27.442;153.014;2022-09-20T13:03:23;5.95;;;2.00;;
64915;SDS011;51427;-27.442;153.014;2022-09-20T13:14:02;5.88;;;1.55;;
64915;SDS011;51427;-27.442;153.014;2022-09-20T13:22:11;7.53;;;1.77;;
64915;SDS011;51427;-27.442;153.014;2022-09-20T13:24:49;6.60;;;1.55;;
64915;SDS011;51427;-27.442;153.014;2022-09-20T13:27:22;7.63;;;1.95;;
64915;SDS011;51427;-27.442;153.014;2022-09-20T13:30:16;8.75;;;2.13;;
64915;SDS011;51427;-27.442;153.014;2022-09-20T13:32:49;5.97;;;1.83;;
64915;SDS011;51427;-27.442;153.014;2022-09-20T13:35:18;8.50;;;2.30;;
64915;SDS011;51427;-27.442;153.014;2022-09-20T13:37:51;7.03;;;1.52;;
64915;SDS011;51427;-27.442;153.014;2022-09-20T13:40:37;4.90;;;1.50;;
64915;SDS011;51427;-27.442;153.014;2022-09-20T13:46:09;10.40;;;2.13;;
64915;SDS011;51427;-27.442;153.014;2022-09-20T13:48:41;6.40;;;1.85;;
64915;SDS011;51427;-27.442;153.014;2022-09-20T13:51:19;5.53;;;1.52;;
64915;SDS011;51427;-27.442;153.014;2022-09-20T13:53:50;8.77;;;2.00;;
64915;SDS011;51427;-27.442;153.014;2022-09-20T13:58:46;7.28;;;1.80;;
64915;SDS011;51427;-27.442;153.014;2022-09-20T14:01:33;6.30;;;1.80;;
64915;SDS011;51427;-27.442;153.014;2022-09-20T14:04:05;9.18;;;2.60;;
64915;SDS011;51427;-27.442;153.014;2022-09-20T14:06:34;7.03;;;1.83;;
64915;SDS011;51427;-27.442;153.014;2022-09-20T14:09:03;7.15;;;2.47;;
64915;SDS011;51427;-27.442;153.014;2022-09-20T14:11:34;5.43;;;1.98;;
64915;SDS011;51427;-27.442;153.014;2022-09-20T14:14:02;7.30;;;1.77;;
64915;SDS011;51427;-27.442;153.014;2022-09-20T14:16:33;5.28;;;2.10;;
64915;SDS011;51427;-27.442;153.014;2022-09-20T14:19:05;5.80;;;1.77;;
64915;SDS011;51427;-27.442;153.014;2022-09-20T14:21:33;9.15;;;2.40;;
64915;SDS011;51427;-27.442;153.014;2022-09-20T14:24:05;7.35;;;2.13;;
64915;SDS011;51427;-27.442;153.014;2022-09-20T14:29:45;6.65;;;1.88;;
64915;SDS011;51427;-27.442;153.014;2022-09-20T14:35:11;6.75;;;2.40;;
64915;SDS011;51427;-27.442;153.014;2022-09-20T14:40:23;5.38;;;2.33;;
64915;SDS011;51427;-27.442;153.014;2022-09-20T14:42:54;4.93;;;2.03;;
64915;SDS011;51427;-27.442;153.014;2022-09-20T14:45:28;6.38;;;2.40;;
64915;SDS011;51427;-27.442;153.014;2022-09-20T14:48:00;7.40;;;2.05;;
64915;SDS011;51427;-27.442;153.014;2022-09-20T14:50:35;4.43;;;2.20;;
64915;SDS011;51427;-27.442;153.014;2022-09-20T14:55:52;3.90;;;2.08;;
64915;SDS011;51427;-27.442;153.014;2022-09-20T14:58:21;6.15;;;2.22;;
64915;SDS011;51427;-27.442;153.014;2022-09-20T15:00:57;8.55;;;2.72;;
64915;SDS011;51427;-27.442;153.014;2022-09-20T15:03:40;7.18;;;2.42;;
64915;SDS011;51427;-27.442;153.014;2022-09-20T15:06:11;7.55;;;2.47;;
64915;SDS011;51427;-27.442;153.014;2022-09-20T15:08:39;8.43;;;2.05;;
64915;SDS011;51427;-27.442;153.014;2022-09-20T15:11:11;5.70;;;2.10;;
64915;SDS011;51427;-27.442;153.014;2022-09-20T15:13:40;8.07;;;1.85;;
64915;SDS011;51427;-27.442;153.014;2022-09-20T15:16:07;5.80;;;2.38;;
64915;SDS011;51427;-27.442;153.014;2022-09-20T15:18:40;9.68;;;2.05;;
64915;SDS011;51427;-27.442;153.014;2022-09-20T15:21:08;9.60;;;2.25;;
64915;SDS011;51427;-27.442;153.014;2022-09-20T15:23:36;8.25;;;2.30;;
64915;SDS011;51427;-27.442;153.014;2022-09-20T15:26:04;7.57;;;2.42;;
64915;SDS011;51427;-27.442;153.014;2022-09-20T15:28:33;11.02;;;2.30;;
64915;SDS011;51427;-27.442;153.014;2022-09-20T15:31:00;7.65;;;2.65;;
64915;SDS011;51427;-27.442;153.014;2022-09-20T15:33:28;6.80;;;2.42;;
64915;SDS011;51427;-27.442;153.014;2022-09-20T15:35:57;7.97;;;2.38;;
64915;SDS011;51427;-27.442;153.014;2022-09-20T15:38:24;7.35;;;2.53;;
64915;SDS011;51427;-27.442;153.014;2022-09-20T15:40:51;7.72;;;1.98;;
64915;SDS011;51427;-27.442;153.014;2022-09-20T15:43:22;9.63;;;2.03;;
64915;SDS011;51427;-27.442;153.014;2022-09-20T15:48:21;6.15;;;2.20;;
64915;SDS011;51427;-27.442;153.014;2022-09-20T15:50:59;5.03;;;1.80;;
64915;SDS011;51427;-27.442;153.014;2022-09-20T15:53:30;6.60;;;2.03;;
64915;SDS011;51427;-27.442;153.014;2022-09-20T15:55:59;7.13;;;2.38;;
64915;SDS011;51427;-27.442;153.014;2022-09-20T15:58:31;7.93;;;2.22;;
64915;SDS011;51427;-27.442;153.014;2022-09-20T16:01:03;4.03;;;1.70;;
64915;SDS011;51427;-27.442;153.014;2022-09-20T16:03:33;6.72;;;2.40;;
64915;SDS011;51427;-27.442;153.014;2022-09-20T16:06:04;5.75;;;1.92;;
64915;SDS011;51427;-27.442;153.014;2022-09-20T16:08:33;7.28;;;1.85;;
64915;SDS011;51427;-27.442;153.014;2022-09-20T16:11:02;10.70;;;2.03;;
64915;SDS011;51427;-27.442;153.014;2022-09-20T16:13:31;8.45;;;2.40;;
64915;SDS011;51427;-27.442;153.014;2022-09-20T16:15:59;9.27;;;2.38;;
64915;SDS011;51427;-27.442;153.014;2022-09-20T16:18:26;8.02;;;2.28;;
64915;SDS011;51427;-27.442;153.014;2022-09-20T16:21:14;7.85;;;2.33;;
64915;SDS011;51427;-27.442;153.014;2022-09-20T16:23:46;8.48;;;2.13;;
64915;SDS011;51427;-27.442;153.014;2022-09-20T16:26:18;10.93;;;2.65;;
64915;SDS011;51427;-27.442;153.014;2022-09-20T16:28:47;7.43;;;2.97;;
64915;SDS011;51427;-27.442;153.014;2022-09-20T16:34:16;13.85;;;4.68;;
64915;SDS011;51427;-27.442;153.014;2022-09-20T16:36:44;9.20;;;4.68;;
64915;SDS011;51427;-27.442;153.014;2022-09-20T16:39:14;11.18;;;4.05;;
64915;SDS011;51427;-27.442;153.014;2022-09-20T16:41:45;8.95;;;3.35;;
64915;SDS011;51427;-27.442;153.014;2022-09-20T16:44:14;6.05;;;3.40;;
64915;SDS011;51427;-27.442;153.014;2022-09-20T16:46:41;9.00;;;4.15;;
64915;SDS011;51427;-27.442;153.014;2022-09-20T16:49:10;9.23;;;4.28;;
64915;SDS011;51427;-27.442;153.014;2022-09-20T16:51:38;7.15;;;3.60;;
64915;SDS011;51427;-27.442;153.014;2022-09-20T16:54:10;9.85;;;3.58;;
64915;SDS011;51427;-27.442;153.014;2022-09-20T16:56:40;8.77;;;3.10;;
64915;SDS011;51427;-27.442;153.014;2022-09-20T16:59:10;7.28;;;3.15;;
64915;SDS011;51427;-27.442;153.014;2022-09-20T17:01:38;8.65;;;2.80;;
64915;SDS011;51427;-27.442;153.014;2022-09-20T17:04:07;5.38;;;3.50;;
64915;SDS011;51427;-27.442;153.014;2022-09-20T17:06:35;11.55;;;3.85;;
64915;SDS011;51427;-27.442;153.014;2022-09-20T17:09:04;11.63;;;4.45;;
64915;SDS011;51427;-27.442;153.014;2022-09-20T17:11:36;7.22;;;4.05;;
64915;SDS011;51427;-27.442;153.014;2022-09-20T17:14:06;10.30;;;4.30;;
64915;SDS011;51427;-27.442;153.014;2022-09-20T17:16:35;7.65;;;3.88;;
64915;SDS011;51427;-27.442;153.014;2022-09-20T17:19:05;9.95;;;4.40;;
64915;SDS011;51427;-27.442;153.014;2022-09-20T17:21:36;5.43;;;4.18;;
64915;SDS011;51427;-27.442;153.014;2022-09-20T17:24:07;8.63;;;3.60;;
64915;SDS011;51427;-27.442;153.014;2022-09-20T17:26:35;8.52;;;3.40;;
64915;SDS011;51427;-27.442;153.014;2022-09-20T17:29:05;10.10;;;4.20;;
64915;SDS011;51427;-27.442;153.014;2022-09-20T17:31:39;11.55;;;4.95;;
64915;SDS011;51427;-27.442;153.014;2022-09-20T17:34:09;6.97;;;4.00;;
64915;SDS011;51427;-27.442;153.014;2022-09-20T17:36:44;10.55;;;4.68;;
64915;SDS011;51427;-27.442;153.014;2022-09-20T17:39:12;10.93;;;5.32;;
64915;SDS011;51427;-27.442;153.014;2022-09-20T17:41:41;8.60;;;4.90;;
64915;SDS011;51427;-27.442;153.014;2022-09-20T17:44:10;13.40;;;5.25;;
64915;SDS011;51427;-27.442;153.014;2022-09-20T17:46:39;7.25;;;4.63;;
64915;SDS011;51427;-27.442;153.014;2022-09-20T17:49:08;10.68;;;4.35;;
64915;SDS011;51427;-27.442;153.014;2022-09-20T17:51:38;9.27;;;4.18;;
64915;SDS011;51427;-27.442;153.014;2022-09-20T17:54:07;12.20;;;4.05;;
64915;SDS011;51427;-27.442;153.014;2022-09-20T17:56:38;6.72;;;2.83;;
64915;SDS011;51427;-27.442;153.014;2022-09-20T17:59:08;8.55;;;4.22;;
64915;SDS011;51427;-27.442;153.014;2022-09-20T18:01:37;8.57;;;3.38;;
64915;SDS011;51427;-27.442;153.014;2022-09-20T18:04:05;6.53;;;2.95;;
64915;SDS011;51427;-27.442;153.014;2022-09-20T18:06:36;9.73;;;3.10;;
64915;SDS011;51427;-27.442;153.014;2022-09-20T18:09:13;6.93;;;3.42;;
64915;SDS011;51427;-27.442;153.014;2022-09-20T18:11:46;11.25;;;3.45;;
64915;SDS011;51427;-27.442;153.014;2022-09-20T18:14:19;7.85;;;3.85;;
64915;SDS011;51427;-27.442;153.014;2022-09-20T18:16:51;10.63;;;3.90;;
64915;SDS011;51427;-27.442;153.014;2022-09-20T18:19:20;5.07;;;2.92;;
64915;SDS011;51427;-27.442;153.014;2022-09-20T18:21:47;7.05;;;3.15;;
64915;SDS011;51427;-27.442;153.014;2022-09-20T18:24:15;7.85;;;2.88;;
64915;SDS011;51427;-27.442;153.014;2022-09-20T18:26:42;9.50;;;2.72;;
64915;SDS011;51427;-27.442;153.014;2022-09-20T18:29:13;7.60;;;2.80;;
64915;SDS011;51427;-27.442;153.014;2022-09-20T18:34:15;7.18;;;2.70;;
64915;SDS011;51427;-27.442;153.014;2022-09-20T18:36:54;6.32;;;2.10;;
64915;SDS011;51427;-27.442;153.014;2022-09-20T18:39:23;7.40;;;2.60;;
64915;SDS011;51427;-27.442;153.014;2022-09-20T18:41:54;7.38;;;2.58;;
64915;SDS011;51427;-27.442;153.014;2022-09-20T18:44:22;7.80;;;2.45;;
64915;SDS011;51427;-27.442;153.014;2022-09-20T18:46:50;7.25;;;2.28;;
64915;SDS011;51427;-27.442;153.014;2022-09-20T18:49:19;6.35;;;2.53;;
64915;SDS011;51427;-27.442;153.014;2022-09-20T18:51:47;5.75;;;2.05;;
64915;SDS011;51427;-27.442;153.014;2022-09-20T18:54:15;8.18;;;2.30;;
64915;SDS011;51427;-27.442;153.014;2022-09-20T18:56:44;8.07;;;2.30;;
64915;SDS011;51427;-27.442;153.014;2022-09-20T18:59:14;8.85;;;2.75;;
64915;SDS011;51427;-27.442;153.014;2022-09-20T19:04:21;5.20;;;2.30;;
64915;SDS011;51427;-27.442;153.014;2022-09-20T19:16:13;6.57;;;2.25;;
64915;SDS011;51427;-27.442;153.014;2022-09-20T19:18:49;6.87;;;2.67;;
64915;SDS011;51427;-27.442;153.014;2022-09-20T19:21:26;5.13;;;2.60;;
64915;SDS011;51427;-27.442;153.014;2022-09-20T19:27:04;6.72;;;2.88;;
64915;SDS011;51427;-27.442;153.014;2022-09-20T19:29:34;6.18;;;3.20;;
64915;SDS011;51427;-27.442;153.014;2022-09-20T19:32:02;9.00;;;3.40;;
64915;SDS011;51427;-27.442;153.014;2022-09-20T19:34:31;8.50;;;3.42;;
64915;SDS011;51427;-27.442;153.014;2022-09-20T19:42:08;7.90;;;3.63;;
64915;SDS011;51427;-27.442;153.014;2022-09-20T19:48:34;6.53;;;3.20;;
64915;SDS011;51427;-27.442;153.014;2022-09-20T19:50:49;6.55;;;3.95;;
64915;SDS011;51427;-27.442;153.014;2022-09-20T19:53:19;8.75;;;4.80;;
64915;SDS011;51427;-27.442;153.014;2022-09-20T19:56:22;10.07;;;5.40;;
64915;SDS011;51427;-27.442;153.014;2022-09-20T19:58:52;15.98;;;6.18;;
64915;SDS011;51427;-27.442;153.014;2022-09-20T20:01:21;12.45;;;5.97;;
64915;SDS011;51427;-27.442;153.014;2022-09-20T20:03:50;14.90;;;6.63;;
64915;SDS011;51427;-27.442;153.014;2022-09-20T20:25:18;10.68;;;4.32;;
64915;SDS011;51427;-27.442;153.014;2022-09-20T20:28:12;8.57;;;3.75;;
64915;SDS011;51427;-27.442;153.014;2022-09-20T20:30:39;7.85;;;3.28;;
64915;SDS011;51427;-27.442;153.014;2022-09-20T20:33:11;8.38;;;3.08;;
64915;SDS011;51427;-27.442;153.014;2022-09-20T20:35:40;10.07;;;2.97;;
64915;SDS011;51427;-27.442;153.014;2022-09-20T20:38:07;7.18;;;3.80;;
64915;SDS011;51427;-27.442;153.014;2022-09-20T20:40:36;7.38;;;2.75;;
64915;SDS011;51427;-27.442;153.014;2022-09-20T20:43:05;6.95;;;3.35;;
64915;SDS011;51427;-27.442;153.014;2022-09-20T20:45:34;9.90;;;3.38;;
64915;SDS011;51427;-27.442;153.014;2022-09-20T20:48:03;9.38;;;3.00;;
64915;SDS011;51427;-27.442;153.014;2022-09-20T20:50:30;6.65;;;2.90;;
64915;SDS011;51427;-27.442;153.014;2022-09-20T20:52:59;6.28;;;3.00;;
64915;SDS011;51427;-27.442;153.014;2022-09-20T20:55:27;7.15;;;3.08;;
64915;SDS011;51427;-27.442;153.014;2022-09-20T20:57:55;12.73;;;3.00;;
64915;SDS011;51427;-27.442;153.014;2022-09-20T21:00:23;7.40;;;3.05;;
64915;SDS011;51427;-27.442;153.014;2022-09-20T21:02:58;10.18;;;3.28;;
64915;SDS011;51427;-27.442;153.014;2022-09-20T21:05:26;8.20;;;3.35;;
64915;SDS011;51427;-27.442;153.014;2022-09-20T21:07:54;13.95;;;3.60;;
64915;SDS011;51427;-27.442;153.014;2022-09-20T21:10:22;8.05;;;3.35;;
64915;SDS011;51427;-27.442;153.014;2022-09-20T21:12:52;9.38;;;3.53;;
64915;SDS011;51427;-27.442;153.014;2022-09-20T21:15:20;8.38;;;3.85;;
64915;SDS011;51427;-27.442;153.014;2022-09-20T21:17:50;8.75;;;3.97;;
64915;SDS011;51427;-27.442;153.014;2022-09-20T21:20:18;10.32;;;4.05;;
64915;SDS011;51427;-27.442;153.014;2022-09-20T21:22:46;9.93;;;4.22;;
64915;SDS011;51427;-27.442;153.014;2022-09-20T21:25:13;14.88;;;4.28;;
64915;SDS011;51427;-27.442;153.014;2022-09-20T21:27:40;10.23;;;4.57;;
64915;SDS011;51427;-27.442;153.014;2022-09-20T21:30:08;11.32;;;4.55;;
64915;SDS011;51427;-27.442;153.014;2022-09-20T21:32:36;9.98;;;5.07;;
64915;SDS011;51427;-27.442;153.014;2022-09-20T21:35:03;7.72;;;4.13;;
64915;SDS011;51427;-27.442;153.014;2022-09-20T21:37:31;10.15;;;4.40;;